createdAt,value
2022-09-01T00:00:14.268Z,93251.91
2022-09-01T00:02:43.447Z,93251.03
2022-09-01T00:05:13.007Z,93248.22
2022-09-01T00:07:40.405Z,93239.22
2022-09-01T00:10:09.081Z,93232.63
2022-09-01T00:12:37.131Z,93239.56
2022-09-01T00:15:07.147Z,93232.44
2022-09-01T00:17:35.111Z,93227.69
2022-09-01T00:20:03.391Z,93228.31
2022-09-01T00:22:30.761Z,93233.59
2022-09-01T00:24:58.535Z,93226.84
2022-09-01T00:27:27.798Z,93232.03
2022-09-01T00:29:59.931Z,93228.44
2022-09-01T00:32:28.107Z,93230.75
2022-09-01T00:34:55.607Z,93225.63
2022-09-01T00:37:23.299Z,93221.72
2022-09-01T00:39:50.672Z,93227.16
2022-09-01T00:42:18.474Z,93212.66
2022-09-01T00:44:46.668Z,93213.81
2022-09-01T00:47:15.132Z,93211.56
2022-09-01T00:49:47.475Z,93207.97
2022-09-01T00:52:21.030Z,93212.22
2022-09-01T00:54:58.364Z,93216.97
2022-09-01T00:57:27.383Z,93217.87
2022-09-01T01:00:25.966Z,93214.91
2022-09-01T01:02:56.412Z,93223.22
2022-09-01T01:05:33.257Z,93222.44
2022-09-01T01:08:03.490Z,93229.59
2022-09-01T01:10:36.069Z,93226.97
2022-09-01T01:13:15.520Z,93223.50
2022-09-01T01:15:44.141Z,93225.50
2022-09-01T01:18:12.886Z,93226.25
2022-09-01T01:20:59.999Z,93222.34
2022-09-01T01:23:45.718Z,93226.81
2022-09-01T01:26:13.088Z,93232.41
2022-09-01T01:28:44.394Z,93220.19
2022-09-01T01:31:19.567Z,93232.63
2022-09-01T01:33:54.108Z,93232.16
2022-09-01T01:36:36.001Z,93243.59
2022-09-01T01:39:12.523Z,93232.00
2022-09-01T01:41:45.316Z,93229.84
2022-09-01T01:44:15.129Z,93231.72
2022-09-01T01:46:46.488Z,93240.22
2022-09-01T01:49:20.149Z,93237.41
2022-09-01T01:51:49.743Z,93237.62
2022-09-01T01:54:19.063Z,93239.75
2022-09-01T01:56:47.261Z,93237.00
2022-09-01T01:59:15.043Z,93238.63
2022-09-01T02:01:49.457Z,93253.41
2022-09-01T02:04:20.143Z,93246.56
2022-09-01T02:06:48.495Z,93246.56
2022-09-01T02:09:18.118Z,93247.87
2022-09-01T02:11:46.122Z,93243.81
2022-09-01T02:14:13.808Z,93241.19
2022-09-01T02:16:41.875Z,93259.62
2022-09-01T02:19:12.125Z,93250.66
2022-09-01T02:21:44.792Z,93250.06
2022-09-01T02:24:13.092Z,93254.50
2022-09-01T02:26:47.568Z,93245.44
2022-09-01T02:29:21.167Z,93250.09
2022-09-01T02:31:52.114Z,93252.47
2022-09-01T02:34:20.791Z,93244.81
2022-09-01T02:36:51.416Z,93244.28
2022-09-01T02:39:25.197Z,93254.06
2022-09-01T02:41:54.078Z,93251.28
2022-09-01T02:44:23.271Z,93248.72
2022-09-01T02:46:51.306Z,93244.41
2022-09-01T02:49:26.369Z,93248.16
2022-09-01T02:51:58.181Z,93247.66
2022-09-01T02:54:28.006Z,93245.41
2022-09-01T02:56:55.187Z,93254.97
2022-09-01T02:59:27.616Z,93253.09
2022-09-01T03:01:57.640Z,93242.19
2022-09-01T03:04:27.417Z,93242.97
2022-09-01T03:06:59.054Z,93243.00
2022-09-01T03:09:26.613Z,93247.00
2022-09-01T03:11:55.694Z,93250.09
2022-09-01T03:14:25.035Z,93246.63
2022-09-01T03:16:52.912Z,93248.53
2022-09-01T03:19:20.423Z,93255.66
2022-09-01T03:21:48.859Z,93248.28
2022-09-01T03:24:18.376Z,93256.25
2022-09-01T03:26:49.903Z,93250.22
2022-09-01T03:29:19.209Z,93246.53
2022-09-01T03:31:46.977Z,93247.66
2022-09-01T03:34:16.635Z,93251.34
2022-09-01T03:36:50.611Z,93257.16
2022-09-01T03:39:19.628Z,93252.28
2022-09-01T03:41:47.855Z,93250.91
2022-09-01T03:44:16.628Z,93251.34
2022-09-01T03:46:44.380Z,93253.50
2022-09-01T03:49:15.792Z,93246.84
2022-09-01T03:51:45.304Z,93242.00
2022-09-01T03:54:13.824Z,93238.75
2022-09-01T03:56:41.939Z,93243.28
2022-09-01T03:59:17.263Z,93254.41
2022-09-01T04:01:46.452Z,93257.19
2022-09-01T04:04:15.191Z,93253.72
2022-09-01T04:06:44.868Z,93256.25
2022-09-01T04:09:13.540Z,93258.41
2022-09-01T04:11:45.825Z,93260.72
2022-09-01T04:14:13.729Z,93253.78
2022-09-01T04:17:00.012Z,93261.19
2022-09-01T04:19:27.745Z,93254.31
2022-09-01T04:22:00.483Z,93255.37
2022-09-01T04:24:31.171Z,93252.47
2022-09-01T04:27:02.379Z,93253.56
2022-09-01T04:29:33.012Z,93243.06
2022-09-01T04:32:05.802Z,93245.16
2022-09-01T04:34:40.535Z,93230.69
2022-09-01T04:37:18.953Z,93239.91
2022-09-01T04:39:55.808Z,93239.03
2022-09-01T04:42:29.677Z,93239.44
2022-09-01T04:45:01.851Z,93243.38
2022-09-01T04:47:36.314Z,93244.91
2022-09-01T04:50:14.498Z,93236.44
2022-09-01T04:52:46.142Z,93241.66
2022-09-01T04:55:18.700Z,93247.44
2022-09-01T04:57:49.777Z,93239.94
2022-09-01T05:00:22.799Z,93239.84
2022-09-01T05:02:54.129Z,93243.16
2022-09-01T05:05:23.957Z,93248.09
2022-09-01T05:07:54.024Z,93233.44
2022-09-01T05:10:23.423Z,93240.16
2022-09-01T05:12:53.974Z,93237.47
2022-09-01T05:15:21.875Z,93236.81
2022-09-01T05:17:49.551Z,93242.03
2022-09-01T05:20:17.317Z,93243.66
2022-09-01T05:22:44.828Z,93230.75
2022-09-01T05:25:13.412Z,93230.34
2022-09-01T05:27:49.820Z,93233.75
2022-09-01T05:30:18.823Z,93229.34
2022-09-01T05:32:49.298Z,93229.94
2022-09-01T05:35:17.767Z,93230.69
2022-09-01T05:37:46.165Z,93234.22
2022-09-01T05:40:16.597Z,93235.41
2022-09-01T05:42:45.073Z,93228.16
2022-09-01T05:45:14.434Z,93228.94
2022-09-01T05:47:42.340Z,93229.78
2022-09-01T05:50:14.479Z,93230.47
2022-09-01T05:52:48.070Z,93236.28
2022-09-01T05:55:16.915Z,93221.12
2022-09-01T05:57:48.311Z,93226.03
2022-09-01T06:00:18.225Z,93232.00
2022-09-01T06:02:47.295Z,93233.81
2022-09-01T06:05:16.422Z,93222.94
2022-09-01T06:07:45.362Z,93225.41
2022-09-01T06:10:15.014Z,93224.09
2022-09-01T06:12:45.403Z,93226.25
2022-09-01T06:15:18.779Z,93221.00
2022-09-01T06:17:47.325Z,93221.88
2022-09-01T06:20:18.381Z,93224.44
2022-09-01T06:22:47.788Z,93219.25
2022-09-01T06:25:18.755Z,93219.97
2022-09-01T06:27:48.405Z,93219.63
2022-09-01T06:30:24.183Z,93214.97
2022-09-01T06:32:54.380Z,93213.03
2022-09-01T06:35:25.352Z,93213.12
2022-09-01T06:37:53.108Z,93207.88
2022-09-01T06:40:22.508Z,93210.37
2022-09-01T06:42:52.589Z,93214.34
2022-09-01T06:45:23.369Z,93204.50
2022-09-01T06:47:59.448Z,93203.50
2022-09-01T06:54:34.754Z,93191.75
2022-09-01T06:59:54.306Z,93195.78
2022-09-01T07:02:27.208Z,93189.63
2022-09-01T07:04:56.189Z,93192.63
2022-09-01T07:10:23.218Z,93192.91
2022-09-01T07:13:12.421Z,93186.31
2022-09-01T07:18:33.040Z,93174.22
2022-09-01T07:21:05.646Z,93178.72
2022-09-01T07:24:07.820Z,93173.06
2022-09-01T07:26:27.066Z,93166.66
2022-09-01T07:29:04.356Z,93171.16
2022-09-01T07:34:46.266Z,93161.53
2022-09-01T07:38:03.107Z,93160.25
2022-09-01T07:46:36.675Z,93153.41
2022-09-01T07:51:37.247Z,93156.09
2022-09-01T07:54:06.703Z,93149.34
2022-09-01T07:56:39.706Z,93158.38
2022-09-01T07:59:14.738Z,93151.94
2022-09-01T08:01:47.523Z,93153.16
2022-09-01T08:04:16.900Z,93152.44
2022-09-01T08:06:44.374Z,93153.81
2022-09-01T08:09:25.251Z,93152.62
2022-09-01T08:12:02.892Z,93161.03
2022-09-01T08:14:34.840Z,93159.06
2022-09-01T08:17:34.297Z,93158.59
2022-09-01T08:19:51.903Z,93158.47
2022-09-01T08:22:24.303Z,93147.00
2022-09-01T08:24:53.418Z,93149.63
2022-09-01T08:27:21.722Z,93139.66
2022-09-01T08:29:49.363Z,93141.03
2022-09-01T08:32:17.090Z,93138.94
2022-09-01T08:34:44.874Z,93141.41
2022-09-01T08:37:12.372Z,93142.09
2022-09-01T08:43:15.411Z,93141.84
2022-09-01T08:45:56.375Z,93141.84
2022-09-01T08:51:52.162Z,93140.69
2022-09-01T08:54:29.705Z,93137.41
2022-09-01T08:57:05.591Z,93131.91
2022-09-01T08:59:39.009Z,93137.91
2022-09-01T09:02:28.739Z,93127.31
2022-09-01T09:05:17.659Z,93134.97
2022-09-01T09:07:45.354Z,93125.47
2022-09-01T09:10:19.692Z,93126.84
2022-09-01T09:12:53.446Z,93122.34
2022-09-01T09:15:33.458Z,93119.56
2022-09-01T09:18:39.204Z,93114.06
2022-09-01T09:21:16.995Z,93114.78
2022-09-01T09:23:48.682Z,93102.53
2022-09-01T09:26:21.879Z,93102.44
2022-09-01T09:28:50.392Z,93102.31
2022-09-01T09:31:31.768Z,93102.41
2022-09-01T09:34:00.612Z,93101.34
2022-09-01T09:36:35.962Z,93107.16
2022-09-01T09:39:06.311Z,93101.84
2022-09-01T09:41:34.275Z,93103.81
2022-09-01T09:44:11.657Z,93099.25
2022-09-01T09:46:46.241Z,93094.00
2022-09-01T09:49:36.607Z,93093.25
2022-09-01T09:52:08.911Z,93092.44
2022-09-01T09:54:57.608Z,93083.25
2022-09-01T09:57:25.781Z,93085.75
2022-09-01T10:00:01.288Z,93078.38
2022-09-01T10:02:33.492Z,93082.97
2022-09-01T10:05:31.948Z,93089.41
2022-09-01T10:07:59.638Z,93088.81
2022-09-01T10:10:29.181Z,93089.06
2022-09-01T10:12:58.238Z,93077.69
2022-09-01T10:15:30.153Z,93086.19
2022-09-01T10:18:29.400Z,93078.72
2022-09-01T10:20:59.585Z,93082.91
2022-09-01T10:23:34.903Z,93085.50
2022-09-01T10:26:09.778Z,93081.66
2022-09-01T10:29:01.687Z,93084.47
2022-09-01T10:31:32.521Z,93081.66
2022-09-01T10:34:06.658Z,93080.78
2022-09-01T10:36:37.633Z,93081.44
2022-09-01T10:39:11.649Z,93078.44
2022-09-01T10:42:00.125Z,93080.16
2022-09-01T10:44:34.465Z,93075.41
2022-09-01T10:47:30.082Z,93073.59
2022-09-01T10:50:22.760Z,93075.78
2022-09-01T10:52:51.366Z,93075.38
2022-09-01T10:55:29.497Z,93069.59
2022-09-01T11:01:48.566Z,93064.50
2022-09-01T11:04:21.816Z,93065.22
2022-09-01T11:07:11.903Z,93061.19
2022-09-01T11:09:45.248Z,93065.09
2022-09-01T11:12:43.781Z,93062.22
2022-09-01T11:15:14.206Z,93054.00
2022-09-01T11:17:51.815Z,93059.53
2022-09-01T11:20:41.840Z,93055.00
2022-09-01T11:23:20.537Z,93059.66
2022-09-01T11:28:44.852Z,93059.97
2022-09-01T11:31:20.843Z,93053.81
2022-09-01T11:34:10.937Z,93057.25
2022-09-01T11:36:59.018Z,93054.38
2022-09-01T11:39:39.715Z,93058.72
2022-09-01T11:42:22.011Z,93063.91
2022-09-01T11:45:02.255Z,93054.47
2022-09-01T11:47:36.771Z,93054.72
2022-09-01T11:50:17.062Z,93049.34
2022-09-01T11:53:04.796Z,93044.53
2022-09-01T11:55:36.289Z,93034.37
2022-09-01T11:58:05.180Z,93031.66
2022-09-01T12:00:39.461Z,93025.78
2022-09-01T12:03:20.858Z,93023.41
2022-09-01T12:05:55.102Z,93010.69
2022-09-01T12:08:24.198Z,93009.53
2022-09-01T12:11:03.960Z,93005.78
2022-09-01T12:13:31.971Z,93001.00
2022-09-01T12:16:19.143Z,93000.34
2022-09-01T12:18:51.585Z,92999.56
2022-09-01T12:21:34.609Z,93004.91
2022-09-01T12:24:14.779Z,93011.50
2022-09-01T12:26:42.461Z,93005.69
2022-09-01T12:29:11.895Z,93010.03
2022-09-01T12:31:43.476Z,93003.06
2022-09-01T12:34:33.211Z,93001.94
2022-09-01T12:37:05.939Z,93001.75
2022-09-01T12:39:49.284Z,92999.62
2022-09-01T12:42:19.956Z,93007.31
2022-09-01T12:44:59.139Z,93010.50
2022-09-01T12:47:36.259Z,92991.94
2022-09-01T12:50:29.656Z,92998.72
2022-09-01T12:53:00.314Z,93003.25
2022-09-01T12:58:29.704Z,93000.84
2022-09-01T13:01:02.766Z,92995.84
2022-09-01T13:03:31.248Z,92999.56
2022-09-01T13:06:04.089Z,92990.84
2022-09-01T13:08:34.275Z,92995.41
2022-09-01T13:11:06.039Z,92997.91
2022-09-01T13:13:35.443Z,92999.81
2022-09-01T13:16:13.118Z,93001.00
2022-09-01T13:21:32.661Z,92991.78
2022-09-01T13:24:00.742Z,92993.06
2022-09-01T13:26:31.543Z,92991.75
2022-09-01T13:29:00.115Z,92990.91
2022-09-01T13:31:30.167Z,92995.22
2022-09-01T13:34:21.929Z,92999.06
2022-09-01T13:36:51.617Z,92992.06
2022-09-01T13:39:21.094Z,92991.59
2022-09-01T13:41:49.680Z,93008.09
2022-09-01T13:44:18.719Z,93007.00
2022-09-01T13:49:44.472Z,93005.34
2022-09-01T13:52:22.447Z,92996.59
2022-09-01T13:54:50.238Z,93000.25
2022-09-01T13:57:18.065Z,92999.56
2022-09-01T13:59:45.585Z,93012.00
2022-09-01T14:02:13.358Z,93011.06
2022-09-01T14:04:41.197Z,93013.13
2022-09-01T14:07:08.648Z,93015.84
2022-09-01T14:09:36.197Z,93014.81
2022-09-01T14:12:05.533Z,93011.31
2022-09-01T14:17:22.647Z,93012.37
2022-09-01T14:19:53.412Z,93012.97
2022-09-01T14:22:21.311Z,93021.00
2022-09-01T14:24:49.436Z,93023.03
2022-09-01T14:27:16.893Z,93021.47
2022-09-01T14:29:50.596Z,93019.69
2022-09-01T14:32:27.219Z,93018.25
2022-09-01T14:34:54.810Z,93025.56
2022-09-01T14:37:23.732Z,93031.72
2022-09-01T14:39:55.792Z,93028.03
2022-09-01T14:42:25.947Z,93029.81
2022-09-01T14:44:53.694Z,93035.63
2022-09-01T14:47:25.723Z,93042.34
2022-09-01T14:49:53.681Z,93037.41
2022-09-01T14:52:22.171Z,93039.19
2022-09-01T14:54:49.877Z,93042.03
2022-09-01T14:57:36.877Z,93037.28
2022-09-01T15:00:14.946Z,93038.38
2022-09-01T15:02:44.023Z,93032.50
2022-09-01T15:05:13.027Z,93037.13
2022-09-01T15:07:41.708Z,93033.13
2022-09-01T15:10:10.492Z,93027.09
2022-09-01T15:12:43.806Z,93023.91
2022-09-01T15:15:11.817Z,93026.53
2022-09-01T15:17:42.245Z,93023.03
2022-09-01T15:20:30.789Z,93022.34
2022-09-01T15:22:58.213Z,93024.25
2022-09-01T15:25:25.981Z,93024.59
2022-09-01T15:27:53.392Z,93020.03
2022-09-01T15:30:21.807Z,93012.22
2022-09-01T15:32:52.159Z,93010.31
2022-09-01T15:35:20.988Z,93018.31
2022-09-01T15:37:50.131Z,93022.09
2022-09-01T15:40:19.278Z,93021.88
2022-09-01T15:42:47.228Z,93023.41
2022-09-01T15:45:21.108Z,93038.44
2022-09-01T15:47:49.261Z,93039.41
2022-09-01T15:50:22.145Z,93045.56
2022-09-01T15:52:53.592Z,93051.84
2022-09-01T15:55:25.634Z,93051.91
2022-09-01T15:57:55.411Z,93054.41
2022-09-01T16:00:25.815Z,93056.50
2022-09-01T16:02:56.668Z,93052.75
2022-09-01T16:05:25.385Z,93055.75
2022-09-01T16:07:53.609Z,93063.59
2022-09-01T16:14:26.445Z,93073.94
2022-09-01T16:17:06.287Z,93073.94
2022-09-01T16:19:50.583Z,93071.19
2022-09-01T16:22:29.297Z,93072.00
2022-09-01T16:25:01.038Z,93067.59
2022-09-01T16:27:49.742Z,93064.78
2022-09-01T16:30:23.399Z,93069.16
2022-09-01T16:32:51.212Z,93075.09
2022-09-01T16:35:28.636Z,93070.22
2022-09-01T16:38:06.471Z,93065.97
2022-09-01T16:41:00.830Z,93076.53
2022-09-01T16:43:53.590Z,93082.34
2022-09-01T16:46:29.932Z,93080.75
2022-09-01T16:49:14.837Z,93087.34
2022-09-01T16:51:55.628Z,93091.44
2022-09-01T16:54:29.568Z,93098.66
2022-09-01T16:57:11.267Z,93091.62
2022-09-01T16:59:53.267Z,93091.12
2022-09-01T17:02:38.769Z,93090.06
2022-09-01T17:05:17.185Z,93088.97
2022-09-01T17:07:52.670Z,93089.75
2022-09-01T17:10:33.587Z,93090.06
2022-09-01T17:13:28.474Z,93091.31
2022-09-01T17:16:08.073Z,93084.88
2022-09-01T17:18:39.231Z,93085.53
2022-09-01T17:21:10.779Z,93080.78
2022-09-01T17:23:46.455Z,93082.56
2022-09-01T17:26:21.565Z,93088.03
2022-09-01T17:29:27.654Z,93087.41
2022-09-01T17:31:58.479Z,93093.06
2022-09-01T17:34:58.151Z,93099.16
2022-09-01T17:37:53.282Z,93092.91
2022-09-01T17:40:55.849Z,93099.31
2022-09-01T17:43:54.119Z,93102.31
2022-09-01T17:46:40.120Z,93103.56
2022-09-01T17:49:13.342Z,93093.97
2022-09-01T17:51:53.097Z,93100.22
2022-09-01T17:54:40.890Z,93102.13
2022-09-01T17:57:33.250Z,93106.81
2022-09-01T18:00:18.142Z,93101.94
2022-09-01T18:03:18.968Z,93113.50
2022-09-01T18:05:59.546Z,93108.91
2022-09-01T18:08:43.904Z,93120.69
2022-09-01T18:11:21.585Z,93117.72
2022-09-01T18:14:04.190Z,93117.25
2022-09-01T18:16:39.319Z,93119.34
2022-09-01T18:19:18.664Z,93114.53
2022-09-01T18:21:57.764Z,93118.63
2022-09-01T18:24:35.648Z,93126.78
2022-09-01T18:27:03.141Z,93119.37
2022-09-01T18:29:32.401Z,93127.91
2022-09-01T18:32:12.727Z,93126.41
2022-09-01T18:34:59.320Z,93135.63
2022-09-01T18:37:55.307Z,93130.16
2022-09-01T18:40:36.855Z,93130.91
2022-09-01T18:43:21.275Z,93134.41
2022-09-01T18:46:16.113Z,93134.22
2022-09-01T18:49:01.467Z,93135.84
2022-09-01T18:52:21.294Z,93132.53
2022-09-01T18:55:04.332Z,93137.38
2022-09-01T18:57:37.822Z,93129.69
2022-09-01T19:00:17.027Z,93124.25
2022-09-01T19:03:06.714Z,93129.22
2022-09-01T19:05:53.583Z,93131.03
2022-09-01T19:08:40.390Z,93125.34
2022-09-01T19:11:32.325Z,93130.66
2022-09-01T19:14:29.434Z,93130.59
2022-09-01T19:17:18.313Z,93134.97
2022-09-01T19:19:58.134Z,93135.50
2022-09-01T19:22:45.572Z,93141.84
2022-09-01T19:25:37.038Z,93142.38
2022-09-01T19:29:05.293Z,93143.56
2022-09-01T19:31:46.654Z,93150.31
2022-09-01T19:34:18.460Z,93150.81
2022-09-01T19:36:53.884Z,93149.44
2022-09-01T19:39:25.667Z,93143.63
2022-09-01T19:42:15.481Z,93150.69
2022-09-01T19:45:24.521Z,93148.25
2022-09-01T19:48:05.360Z,93152.28
2022-09-01T19:50:50.999Z,93153.03
2022-09-01T19:53:45.027Z,93168.66
2022-09-01T19:56:31.382Z,93163.25
2022-09-01T19:59:14.322Z,93162.28
2022-09-01T20:02:00.332Z,93163.63
2022-09-01T20:04:53.708Z,93160.31
2022-09-01T20:07:31.601Z,93157.84
2022-09-01T20:10:22.017Z,93156.28
2022-09-01T20:12:49.501Z,93160.41
2022-09-01T20:15:24.620Z,93158.94
2022-09-01T20:18:00.387Z,93157.75
2022-09-01T20:20:45.348Z,93157.47
2022-09-01T20:23:27.110Z,93154.22
2022-09-01T20:26:25.641Z,93163.16
2022-09-01T20:29:21.552Z,93156.87
2022-09-01T20:31:54.483Z,93155.50
2022-09-01T20:34:33.030Z,93147.94
2022-09-01T20:37:04.120Z,93159.03
2022-09-01T20:40:01.289Z,93149.84
2022-09-01T20:43:04.170Z,93163.03
2022-09-01T20:45:32.195Z,93158.13
2022-09-01T20:48:06.923Z,93161.22
2022-09-01T20:50:46.423Z,93152.31
2022-09-01T20:53:35.281Z,93165.81
2022-09-01T20:56:14.091Z,93158.53
2022-09-01T20:58:46.170Z,93166.41
2022-09-01T21:01:32.661Z,93159.56
2022-09-01T21:04:12.529Z,93167.88
2022-09-01T21:07:04.738Z,93163.25
2022-09-01T21:09:41.568Z,93169.00
2022-09-01T21:12:25.851Z,93170.00
2022-09-01T21:15:11.806Z,93165.16
2022-09-01T21:18:17.452Z,93163.13
2022-09-01T21:21:23.660Z,93170.22
2022-09-01T21:23:51.082Z,93172.56
2022-09-01T21:26:19.059Z,93181.16
2022-09-01T21:28:49.742Z,93185.38
2022-09-01T21:31:19.448Z,93182.00
2022-09-01T21:33:47.407Z,93188.34
2022-09-01T21:36:14.727Z,93193.09
2022-09-01T21:38:42.122Z,93198.62
2022-09-01T21:41:13.233Z,93194.06
2022-09-01T21:43:45.642Z,93189.75
2022-09-01T21:46:15.405Z,93195.16
2022-09-01T21:48:42.979Z,93192.03
2022-09-01T21:51:10.403Z,93184.22
2022-09-01T21:53:40.613Z,93180.50
2022-09-01T21:56:08.140Z,93177.97
2022-09-01T21:58:39.592Z,93174.47
2022-09-01T22:01:07.696Z,93171.72
2022-09-01T22:03:38.470Z,93163.78
2022-09-01T22:06:10.299Z,93158.34
2022-09-01T22:08:38.203Z,93155.13
2022-09-01T22:11:09.937Z,93158.03
2022-09-01T22:13:37.964Z,93152.66
2022-09-01T22:16:05.479Z,93150.97
2022-09-01T22:18:32.943Z,93147.25
2022-09-01T22:21:11.214Z,93148.25
2022-09-01T22:23:38.895Z,93150.00
2022-09-01T22:26:07.513Z,93146.41
2022-09-01T22:28:35.146Z,93145.53
2022-09-01T22:31:02.927Z,93138.88
2022-09-01T22:33:30.920Z,93136.66
2022-09-01T22:35:58.322Z,93140.94
2022-09-01T22:38:25.986Z,93145.84
2022-09-01T22:40:56.341Z,93147.34
2022-09-01T22:43:24.673Z,93139.44
2022-09-01T22:45:52.277Z,93144.94
2022-09-01T22:48:22.193Z,93141.22
2022-09-01T22:50:51.178Z,93133.06
2022-09-01T22:53:19.464Z,93131.88
2022-09-01T22:55:49.613Z,93134.16
2022-09-01T22:58:17.448Z,93141.81
2022-09-01T23:00:54.203Z,93141.81
2022-09-01T23:03:23.102Z,93131.13
2022-09-01T23:06:03.039Z,93142.22
2022-09-01T23:08:30.899Z,93141.47
2022-09-01T23:10:58.551Z,93145.97
2022-09-01T23:13:28.412Z,93137.47
2022-09-01T23:15:59.021Z,93139.78
2022-09-01T23:18:29.603Z,93141.28
2022-09-01T23:20:57.929Z,93129.09
2022-09-01T23:23:26.334Z,93126.63
2022-09-01T23:25:53.765Z,93123.59
2022-09-01T23:28:22.048Z,93125.06
2022-09-01T23:30:51.093Z,93122.94
2022-09-01T23:33:20.191Z,93127.22
2022-09-01T23:35:54.715Z,93124.00
2022-09-01T23:38:24.437Z,93117.34
2022-09-01T23:40:55.144Z,93115.59
2022-09-01T23:43:24.593Z,93116.56
2022-09-01T23:45:55.650Z,93115.53
2022-09-01T23:48:24.818Z,93112.53
2022-09-01T23:50:59.742Z,93112.75
2022-09-01T23:53:30.284Z,93100.94
2022-09-01T23:56:05.373Z,93100.38
2022-09-01T23:58:32.959Z,93103.25
